createdAt,value
2024-01-03T00:02:07.532Z,63.10
2024-01-03T00:04:34.310Z,62.62
2024-01-03T00:07:00.810Z,63.32
2024-01-03T00:09:28.666Z,62.70
2024-01-03T00:11:55.168Z,63.63
2024-01-03T00:14:25.455Z,63.21
2024-01-03T00:16:51.937Z,64.10
2024-01-03T00:19:21.124Z,63.83
2024-01-03T00:21:48.072Z,63.69
2024-01-03T00:24:18.311Z,63.33
2024-01-03T00:26:47.153Z,63.17
2024-01-03T00:29:48.460Z,62.70
2024-01-03T00:32:15.186Z,62.87
2024-01-03T00:34:41.836Z,62.95
2024-01-03T00:37:22.547Z,63.59
2024-01-03T00:39:49.202Z,63.51
2024-01-03T00:42:17.121Z,64.15
2024-01-03T00:44:43.710Z,63.90
2024-01-03T00:47:10.308Z,64.61
2024-01-03T00:49:38.368Z,66.24
2024-01-03T00:52:06.491Z,66.03
2024-01-03T00:54:33.173Z,66.24
2024-01-03T00:57:00.761Z,66.35
2024-01-03T00:59:29.072Z,66.36
2024-01-03T01:01:56.139Z,68.02
2024-01-03T01:04:22.812Z,68.66
2024-01-03T01:06:49.406Z,68.13
2024-01-03T01:09:15.971Z,69.90
2024-01-03T01:11:42.446Z,68.88
2024-01-03T01:14:09.152Z,69.08
2024-01-03T01:16:36.942Z,68.66
2024-01-03T01:19:03.530Z,67.84
2024-01-03T01:21:30.045Z,68.18
2024-01-03T01:23:56.527Z,68.42
2024-01-03T01:26:23.089Z,68.63
2024-01-03T01:28:50.498Z,68.51
2024-01-03T01:31:16.944Z,67.44
2024-01-03T01:33:45.024Z,67.42
2024-01-03T01:36:11.797Z,67.34
2024-01-03T01:38:38.320Z,67.54
2024-01-03T01:41:05.045Z,67.13
2024-01-03T01:43:31.481Z,67.46
2024-01-03T01:45:58.288Z,67.61
2024-01-03T01:48:25.718Z,66.69
2024-01-03T01:50:54.242Z,67.12
2024-01-03T01:53:21.318Z,66.70
2024-01-03T01:55:48.396Z,66.83
2024-01-03T01:58:14.892Z,66.71
2024-01-03T02:00:42.901Z,65.87
2024-01-03T02:03:11.588Z,67.37
2024-01-03T02:05:38.350Z,66.54
2024-01-03T02:08:09.130Z,66.90
2024-01-03T02:10:35.996Z,66.54
2024-01-03T02:13:02.594Z,66.88
2024-01-03T02:15:29.061Z,68.03
2024-01-03T02:17:56.318Z,68.47
2024-01-03T02:20:25.059Z,67.92
2024-01-03T02:22:52.956Z,68.06
2024-01-03T02:25:19.423Z,67.79
2024-01-03T02:27:46.555Z,67.76
2024-01-03T02:30:13.361Z,68.36
2024-01-03T02:32:39.906Z,67.80
2024-01-03T02:35:06.921Z,68.54
2024-01-03T02:37:33.863Z,67.76
2024-01-03T02:40:01.653Z,67.37
2024-01-03T02:42:28.074Z,67.63
2024-01-03T02:44:54.532Z,66.90
2024-01-03T02:47:21.044Z,66.93
2024-01-03T02:49:47.768Z,66.49
2024-01-03T02:52:14.260Z,66.65
2024-01-03T02:54:40.668Z,66.84
2024-01-03T02:57:08.459Z,66.34
2024-01-03T02:59:34.973Z,66.40
2024-01-03T03:02:01.456Z,66.08
2024-01-03T03:04:27.929Z,65.29
2024-01-03T03:06:54.481Z,65.11
2024-01-03T03:09:21.138Z,65.45
2024-01-03T03:11:48.035Z,65.39
2024-01-03T03:14:16.334Z,65.81
2024-01-03T03:16:42.830Z,65.81
2024-01-03T03:19:09.616Z,65.18
2024-01-03T03:21:36.276Z,64.97
2024-01-03T03:24:02.917Z,65.66
2024-01-03T03:26:29.512Z,65.52
2024-01-03T03:28:56.587Z,65.77
2024-01-03T03:31:24.390Z,65.87
2024-01-03T03:33:50.959Z,65.49
2024-01-03T03:36:17.664Z,65.32
2024-01-03T03:38:44.387Z,65.06
2024-01-03T03:41:11.324Z,64.82
2024-01-03T03:43:38.007Z,65.48
2024-01-03T03:46:04.997Z,65.18
2024-01-03T03:48:33.047Z,65.56
2024-01-03T03:51:00.688Z,66.40
2024-01-03T03:53:27.259Z,66.88
2024-01-03T03:55:53.728Z,67.24
2024-01-03T03:58:20.191Z,68.24
2024-01-03T04:00:46.660Z,68.44
2024-01-03T04:03:13.265Z,68.82
2024-01-03T04:05:41.249Z,68.68
2024-01-03T04:08:08.426Z,68.65
2024-01-03T04:10:35.127Z,68.44
2024-01-03T04:13:01.829Z,68.46
2024-01-03T04:15:30.674Z,68.97
2024-01-03T04:17:57.988Z,69.17
2024-01-03T04:20:24.795Z,69.14
2024-01-03T04:22:52.721Z,69.31
2024-01-03T04:25:19.414Z,67.81
2024-01-03T04:27:45.875Z,67.58
2024-01-03T04:30:12.777Z,68.44
2024-01-03T04:32:44.930Z,67.16
2024-01-03T04:35:11.521Z,67.43
2024-01-03T04:37:38.133Z,68.50
2024-01-03T04:40:07.222Z,67.65
2024-01-03T04:42:33.777Z,67.45
2024-01-03T04:45:00.360Z,67.86
2024-01-03T04:47:27.688Z,67.22
2024-01-03T04:49:54.253Z,67.11
2024-01-03T04:52:20.734Z,66.74
2024-01-03T04:54:47.286Z,67.34
2024-01-03T04:57:17.265Z,67.47
2024-01-03T04:59:45.228Z,66.42
2024-01-03T05:02:11.712Z,66.66
2024-01-03T05:04:38.125Z,67.20
2024-01-03T05:07:05.104Z,67.90
2024-01-03T05:09:31.599Z,66.91
2024-01-03T05:11:58.270Z,66.57
2024-01-03T05:14:26.182Z,66.58
2024-01-03T05:16:52.745Z,66.05
2024-01-03T05:19:19.390Z,66.41
2024-01-03T05:21:45.886Z,65.97
2024-01-03T05:24:13.393Z,66.71
2024-01-03T05:26:40.051Z,67.04
2024-01-03T05:29:06.848Z,66.90
2024-01-03T05:31:34.642Z,68.57
2024-01-03T05:34:01.213Z,68.89
2024-01-03T05:36:27.928Z,68.78
2024-01-03T05:38:54.375Z,68.96
2024-01-03T05:41:20.919Z,69.30
2024-01-03T05:43:47.407Z,69.32
2024-01-03T05:46:13.837Z,70.14
2024-01-03T05:48:43.103Z,70.32
2024-01-03T05:51:10.010Z,70.60
2024-01-03T05:53:36.549Z,70.07
2024-01-03T05:56:03.066Z,69.89
2024-01-03T05:58:29.567Z,69.58
2024-01-03T06:00:56.049Z,70.80
2024-01-03T06:03:22.557Z,71.17
2024-01-03T06:05:50.413Z,72.41
2024-01-03T06:08:16.906Z,71.18
2024-01-03T06:10:43.421Z,72.10
2024-01-03T06:13:09.929Z,71.41
2024-01-03T06:15:36.419Z,71.58
2024-01-03T06:18:03.166Z,71.97
2024-01-03T06:20:29.784Z,72.97
2024-01-03T06:22:57.686Z,73.22
2024-01-03T06:25:24.127Z,74.21
2024-01-03T06:27:50.591Z,74.29
2024-01-03T06:30:17.396Z,73.92
2024-01-03T06:32:44.170Z,74.54
2024-01-03T06:35:13.417Z,74.17
2024-01-03T06:37:41.446Z,74.02
2024-01-03T06:40:10.462Z,74.03
2024-01-03T06:42:36.889Z,74.66
2024-01-03T06:45:04.054Z,75.06
2024-01-03T06:47:30.640Z,77.19
2024-01-03T06:49:57.333Z,76.23
2024-01-03T06:52:23.889Z,76.76
2024-01-03T06:54:50.632Z,76.20
2024-01-03T06:57:18.478Z,76.64
2024-01-03T06:59:44.933Z,76.54
2024-01-03T07:02:11.402Z,77.33
2024-01-03T07:04:37.833Z,77.08
2024-01-03T07:07:04.391Z,77.36
2024-01-03T07:09:30.862Z,77.59
2024-01-03T07:11:57.560Z,77.23
2024-01-03T07:14:25.491Z,77.01
2024-01-03T07:16:52.330Z,76.52
2024-01-03T07:19:19.134Z,77.10
2024-01-03T07:21:45.860Z,77.84
2024-01-03T07:24:12.728Z,76.90
2024-01-03T07:26:39.442Z,75.95
2024-01-03T07:29:05.956Z,76.65
2024-01-03T07:31:33.970Z,75.49
2024-01-03T07:34:00.650Z,75.86
2024-01-03T07:36:27.172Z,76.05
2024-01-03T07:38:53.660Z,74.87
2024-01-03T07:41:20.163Z,75.22
2024-01-03T07:43:46.652Z,74.41
2024-01-03T07:46:15.734Z,75.12
2024-01-03T07:48:43.781Z,73.46
2024-01-03T07:51:11.443Z,73.21
2024-01-03T07:53:37.957Z,72.78
2024-01-03T07:56:07.796Z,72.59
2024-01-03T07:58:34.204Z,73.11
2024-01-03T08:01:00.731Z,72.68
2024-01-03T08:03:27.156Z,72.95
2024-01-03T08:05:55.716Z,73.47
2024-01-03T08:08:22.359Z,74.02
2024-01-03T08:10:48.830Z,73.56
2024-01-03T08:13:15.699Z,72.68
2024-01-03T08:15:42.331Z,73.24
2024-01-03T08:20:35.582Z,71.74
2024-01-03T08:23:03.744Z,71.39
2024-01-03T08:25:30.402Z,71.15
2024-01-03T08:27:57.002Z,70.57
2024-01-03T08:30:23.598Z,70.26
2024-01-03T08:32:50.243Z,70.61
2024-01-03T08:35:16.796Z,70.50
2024-01-03T08:37:43.298Z,70.49
2024-01-03T08:40:12.062Z,70.79
2024-01-03T08:42:38.487Z,70.94
2024-01-03T08:45:05.808Z,71.31
2024-01-03T08:47:32.426Z,70.57
2024-01-03T08:49:59.193Z,70.21
2024-01-03T08:52:25.780Z,69.48
2024-01-03T08:54:52.289Z,69.90
2024-01-03T08:57:20.162Z,69.49
2024-01-03T08:59:46.650Z,69.85
2024-01-03T09:02:13.125Z,69.64
2024-01-03T09:04:41.173Z,69.88
2024-01-03T09:07:07.873Z,70.03
2024-01-03T09:09:34.445Z,69.43
2024-01-03T09:12:01.075Z,69.70
2024-01-03T09:14:28.993Z,70.01
2024-01-03T09:16:55.533Z,70.11
2024-01-03T09:19:22.124Z,70.00
2024-01-03T09:21:48.861Z,69.01
2024-01-03T09:24:15.821Z,68.29
2024-01-03T09:26:42.640Z,68.98
2024-01-03T09:29:09.150Z,66.91
2024-01-03T09:31:43.632Z,66.53
2024-01-03T09:34:10.385Z,67.19
2024-01-03T09:36:36.943Z,66.71
2024-01-03T09:39:03.751Z,66.35
2024-01-03T09:41:32.839Z,66.01
2024-01-03T09:44:00.349Z,66.91
2024-01-03T09:46:26.840Z,66.49
2024-01-03T09:48:55.123Z,66.20
2024-01-03T09:51:21.699Z,65.71
2024-01-03T09:53:51.841Z,65.25
2024-01-03T09:56:18.394Z,65.04
2024-01-03T09:58:46.168Z,64.93
2024-01-03T10:01:12.705Z,63.84
2024-01-03T10:03:39.441Z,63.93
2024-01-03T10:06:12.311Z,65.16
2024-01-03T10:08:42.474Z,64.99
2024-01-03T10:11:19.216Z,65.49
2024-01-03T10:13:45.701Z,65.14
2024-01-03T10:16:12.216Z,65.22
2024-01-03T10:18:38.888Z,66.36
2024-01-03T10:21:14.355Z,66.40
2024-01-03T10:23:42.032Z,65.22
2024-01-03T10:26:08.610Z,64.83
2024-01-03T10:28:35.083Z,63.20
2024-01-03T10:31:01.575Z,62.95
2024-01-03T10:33:28.500Z,61.66
2024-01-03T10:35:55.341Z,61.46
2024-01-03T10:38:24.391Z,62.00
2024-01-03T10:40:51.653Z,61.68
2024-01-03T10:43:18.293Z,62.32
2024-01-03T10:45:44.865Z,62.82
2024-01-03T10:48:11.896Z,62.62
2024-01-03T10:50:38.676Z,63.39
2024-01-03T10:53:09.839Z,63.41
2024-01-03T10:55:39.125Z,63.24
2024-01-03T10:58:13.049Z,63.74
2024-01-03T11:00:49.753Z,63.67
2024-01-03T11:03:26.826Z,63.39
2024-01-03T11:06:06.497Z,63.68
2024-01-03T11:08:42.580Z,62.92
2024-01-03T11:11:10.521Z,63.22
2024-01-03T11:13:40.199Z,63.46
2024-01-03T11:16:07.320Z,63.27
2024-01-03T11:18:49.646Z,64.29
2024-01-03T11:21:42.024Z,63.19
2024-01-03T11:24:54.158Z,62.27
2024-01-03T11:27:25.247Z,61.35
2024-01-03T11:29:53.940Z,60.89
2024-01-03T11:32:35.780Z,61.50
2024-01-03T11:35:06.290Z,61.50
2024-01-03T11:37:34.795Z,61.37
2024-01-03T11:40:01.310Z,62.32
2024-01-03T11:42:31.666Z,62.10
2024-01-03T11:45:03.462Z,61.71
2024-01-03T11:47:30.087Z,61.91
2024-01-03T11:49:57.082Z,60.97
2024-01-03T11:52:23.564Z,61.48
2024-01-03T11:54:50.736Z,60.64
2024-01-03T11:57:21.178Z,58.81
2024-01-03T11:59:49.150Z,58.87
2024-01-03T12:02:15.844Z,59.42
2024-01-03T12:04:44.292Z,59.48
2024-01-03T12:07:12.871Z,61.01
2024-01-03T12:09:39.603Z,60.49
2024-01-03T12:12:07.204Z,61.07
2024-01-03T12:14:33.799Z,62.29
2024-01-03T12:17:03.733Z,62.56
2024-01-03T12:19:31.727Z,64.19
2024-01-03T12:21:59.845Z,63.78
2024-01-03T12:24:39.277Z,63.18
2024-01-03T12:27:06.021Z,62.81
2024-01-03T12:29:32.801Z,63.59
2024-01-03T12:32:10.570Z,62.41
2024-01-03T12:34:37.447Z,62.16
2024-01-03T12:37:04.373Z,61.36
2024-01-03T12:39:34.533Z,61.71
2024-01-03T12:42:03.352Z,62.50
2024-01-03T12:44:31.781Z,62.86
2024-01-03T12:46:58.436Z,63.33
2024-01-03T12:49:26.738Z,62.89
2024-01-03T12:51:54.594Z,62.82
2024-01-03T12:54:21.150Z,63.93
2024-01-03T12:56:47.816Z,63.59
2024-01-03T12:59:14.408Z,64.88
2024-01-03T13:01:41.592Z,64.74
2024-01-03T13:04:08.305Z,64.62
2024-01-03T13:06:36.347Z,64.81
2024-01-03T13:09:03.037Z,65.39
2024-01-03T13:11:29.664Z,64.95
2024-01-03T13:13:56.575Z,65.06
2024-01-03T13:16:23.093Z,64.45
2024-01-03T13:18:50.050Z,64.12
2024-01-03T13:21:16.643Z,64.24
2024-01-03T13:23:44.783Z,64.36
2024-01-03T13:26:12.073Z,64.45
2024-01-03T13:28:39.401Z,64.75
2024-01-03T13:31:06.144Z,64.49
2024-01-03T13:33:33.142Z,62.76
2024-01-03T13:35:59.980Z,63.72
2024-01-03T13:38:26.691Z,63.10
2024-01-03T13:40:57.329Z,62.79
2024-01-03T13:43:23.772Z,63.47
2024-01-03T13:45:50.264Z,61.94
2024-01-03T13:48:16.888Z,61.20
2024-01-03T13:50:43.520Z,61.86
2024-01-03T13:53:10.310Z,61.72
2024-01-03T13:55:37.582Z,61.89
2024-01-03T13:58:06.123Z,60.85
2024-01-03T14:00:33.475Z,60.63
2024-01-03T14:03:00.082Z,60.49
2024-01-03T14:05:30.529Z,61.73
2024-01-03T14:07:58.682Z,61.21
2024-01-03T14:10:25.537Z,61.16
2024-01-03T14:12:52.259Z,60.88
2024-01-03T14:15:20.219Z,61.42
2024-01-03T14:17:47.141Z,62.15
2024-01-03T14:20:13.907Z,62.06
2024-01-03T14:22:40.863Z,62.66
2024-01-03T14:25:07.803Z,63.14
2024-01-03T14:27:34.421Z,63.46
2024-01-03T14:30:01.188Z,63.13
2024-01-03T14:32:29.177Z,62.37
2024-01-03T14:34:55.752Z,62.07
2024-01-03T14:37:22.470Z,62.14
2024-01-03T14:39:49.027Z,62.32
2024-01-03T14:42:15.838Z,63.00
2024-01-03T14:44:42.449Z,63.55
2024-01-03T14:47:09.115Z,64.50
2024-01-03T14:49:37.218Z,65.27
2024-01-03T14:52:04.315Z,66.84
2024-01-03T14:54:31.083Z,67.25
2024-01-03T14:56:58.336Z,67.24
2024-01-03T14:59:25.253Z,67.74
2024-01-03T15:01:52.811Z,67.46
2024-01-03T15:04:19.693Z,68.92
2024-01-03T15:06:56.057Z,68.65
2024-01-03T15:09:22.974Z,69.57
2024-01-03T15:11:49.513Z,69.10
2024-01-03T15:14:16.933Z,69.33
2024-01-03T15:16:43.645Z,69.76
2024-01-03T15:19:10.729Z,69.88
2024-01-03T15:21:38.174Z,69.71
2024-01-03T15:24:09.942Z,70.54
2024-01-03T15:26:36.737Z,70.79
2024-01-03T15:29:03.416Z,70.32
2024-01-03T15:31:29.936Z,70.24
2024-01-03T15:33:56.652Z,70.09
2024-01-03T15:36:23.507Z,70.75
2024-01-03T15:38:52.279Z,70.94
2024-01-03T15:41:20.443Z,70.71
2024-01-03T15:43:47.043Z,70.38
2024-01-03T15:46:16.606Z,70.16
2024-01-03T15:48:44.562Z,70.70
2024-01-03T15:51:11.348Z,70.14
2024-01-03T15:53:38.206Z,71.22
2024-01-03T15:56:05.089Z,71.41
2024-01-03T15:58:33.432Z,70.81
2024-01-03T16:01:00.256Z,70.43
2024-01-03T16:03:27.044Z,70.52
2024-01-03T16:05:53.754Z,70.88
2024-01-03T16:08:20.402Z,71.45
2024-01-03T16:10:47.100Z,71.27
2024-01-03T16:13:13.598Z,70.64
2024-01-03T16:15:41.827Z,70.40
2024-01-03T16:18:08.552Z,70.77
2024-01-03T16:20:35.792Z,70.56
2024-01-03T16:23:02.371Z,71.14
2024-01-03T16:25:29.185Z,70.29
2024-01-03T16:27:55.710Z,71.04
2024-01-03T16:30:22.489Z,70.08
2024-01-03T16:32:50.622Z,71.58
2024-01-03T16:35:17.451Z,70.51
2024-01-03T16:37:44.514Z,70.55
2024-01-03T16:40:16.519Z,70.56
2024-01-03T16:42:43.162Z,69.91
2024-01-03T16:45:10.540Z,70.07
2024-01-03T16:47:50.184Z,69.38
2024-01-03T16:50:18.074Z,69.48
2024-01-03T16:52:44.672Z,69.19
2024-01-03T16:55:11.337Z,69.91
2024-01-03T16:57:37.905Z,69.53
2024-01-03T17:00:06.112Z,68.41
2024-01-03T17:02:32.724Z,68.36
2024-01-03T17:04:59.321Z,68.17
2024-01-03T17:07:27.451Z,67.80
2024-01-03T17:09:54.671Z,66.88
2024-01-03T17:12:21.566Z,66.71
2024-01-03T17:14:48.425Z,66.42
2024-01-03T17:17:15.065Z,66.37
2024-01-03T17:19:41.773Z,65.88
2024-01-03T17:22:08.398Z,65.87
2024-01-03T17:24:36.389Z,66.70
2024-01-03T17:27:03.248Z,66.30
2024-01-03T17:29:29.882Z,65.91
2024-01-03T17:31:56.688Z,67.06
2024-01-03T17:34:23.350Z,67.37
2024-01-03T17:36:49.912Z,67.15
2024-01-03T17:39:16.631Z,67.53
2024-01-03T17:41:44.677Z,67.50
2024-01-03T17:44:11.610Z,66.87
2024-01-03T17:46:38.936Z,67.68
2024-01-03T17:49:05.777Z,67.66
2024-01-03T17:51:32.503Z,67.45
2024-01-03T17:53:59.918Z,67.95
2024-01-03T17:56:28.068Z,67.98
2024-01-03T17:58:57.188Z,67.91
2024-01-03T18:01:24.321Z,69.00
2024-01-03T18:03:51.101Z,68.80
2024-01-03T18:06:17.781Z,69.86
2024-01-03T18:08:45.328Z,71.09
2024-01-03T18:11:12.139Z,71.10
2024-01-03T18:13:38.652Z,71.08
2024-01-03T18:16:07.342Z,71.10
2024-01-03T18:18:34.103Z,71.59
2024-01-03T18:21:01.044Z,72.57
2024-01-03T18:23:27.676Z,72.00
2024-01-03T18:25:54.258Z,71.92
2024-01-03T18:28:20.809Z,71.71
2024-01-03T18:30:47.616Z,71.16
2024-01-03T18:33:15.916Z,70.66
2024-01-03T18:35:42.550Z,71.14
2024-01-03T18:38:09.597Z,70.78
2024-01-03T18:40:36.397Z,70.75
2024-01-03T18:43:02.967Z,71.16
2024-01-03T18:45:29.818Z,71.82
2024-01-03T18:47:58.964Z,71.84
2024-01-03T18:50:27.152Z,72.36
2024-01-03T18:52:53.686Z,72.39
2024-01-03T18:55:20.342Z,72.66
2024-01-03T18:57:46.853Z,72.59
2024-01-03T19:00:13.954Z,72.46
2024-01-03T19:02:41.366Z,71.72
2024-01-03T19:05:08.571Z,71.82
2024-01-03T19:07:36.859Z,72.30
2024-01-03T19:10:03.721Z,72.58
2024-01-03T19:12:30.831Z,73.36
2024-01-03T19:14:57.589Z,73.08
2024-01-03T19:17:24.421Z,72.19
2024-01-03T19:19:51.189Z,71.57
2024-01-03T19:22:18.206Z,71.90
2024-01-03T19:24:46.609Z,72.90
2024-01-03T19:27:13.253Z,73.33
2024-01-03T19:29:40.145Z,72.78
2024-01-03T19:32:07.540Z,73.56
2024-01-03T19:34:35.215Z,72.94
2024-01-03T19:37:03.299Z,73.81
2024-01-03T19:39:29.888Z,73.38
2024-01-03T19:41:58.457Z,73.06
2024-01-03T19:44:25.628Z,73.66
2024-01-03T19:46:52.083Z,73.55
2024-01-03T19:49:19.588Z,73.41
2024-01-03T19:51:46.433Z,73.84
2024-01-03T19:54:13.221Z,73.57
2024-01-03T19:56:41.070Z,74.96
2024-01-03T19:59:09.279Z,74.68
2024-01-03T20:01:35.932Z,74.31
2024-01-03T20:04:02.711Z,74.26
2024-01-03T20:06:29.621Z,73.86
2024-01-03T20:08:56.573Z,75.25
2024-01-03T20:11:23.472Z,73.96
2024-01-03T20:13:50.067Z,73.92
2024-01-03T20:16:18.118Z,74.07
2024-01-03T20:18:45.101Z,73.86
2024-01-03T20:21:12.417Z,74.06
2024-01-03T20:23:40.922Z,73.68
2024-01-03T20:26:14.538Z,73.38
2024-01-03T20:28:43.477Z,73.75
2024-01-03T20:31:11.591Z,74.60
2024-01-03T20:33:39.843Z,73.77
2024-01-03T20:36:07.552Z,73.39
2024-01-03T20:38:34.801Z,73.63
2024-01-03T20:41:03.154Z,74.28
2024-01-03T20:43:31.784Z,75.13
2024-01-03T20:45:59.988Z,74.39
2024-01-03T20:48:26.839Z,73.74
2024-01-03T20:50:56.004Z,73.85
2024-01-03T20:53:22.528Z,74.68
2024-01-03T20:55:49.092Z,74.66
2024-01-03T20:58:15.772Z,74.15
2024-01-03T21:00:42.361Z,73.83
2024-01-03T21:03:11.239Z,72.88
2024-01-03T21:05:38.745Z,72.38
2024-01-03T21:08:07.011Z,74.00
2024-01-03T21:10:33.523Z,73.32
2024-01-03T21:12:59.998Z,73.38
2024-01-03T21:15:26.604Z,74.77
2024-01-03T21:17:53.784Z,73.77
2024-01-03T21:20:20.389Z,73.67
2024-01-03T21:22:47.566Z,73.13
2024-01-03T21:25:16.007Z,73.48
2024-01-03T21:27:48.817Z,73.23
2024-01-03T21:30:18.792Z,72.91
2024-01-03T21:32:46.025Z,72.68
2024-01-03T21:35:13.158Z,73.21
2024-01-03T21:37:40.142Z,74.05
2024-01-03T21:40:08.946Z,73.27
2024-01-03T21:42:39.699Z,73.23
2024-01-03T21:45:06.659Z,72.83
2024-01-03T21:47:33.861Z,72.27
2024-01-03T21:50:01.770Z,72.96
2024-01-03T21:52:28.728Z,74.17
2024-01-03T21:54:55.309Z,73.52
2024-01-03T21:57:22.152Z,73.01
2024-01-03T21:59:50.388Z,73.07
2024-01-03T22:02:17.409Z,72.32
2024-01-03T22:04:43.913Z,72.50
2024-01-03T22:07:10.487Z,74.10
2024-01-03T22:09:37.067Z,74.10
2024-01-03T22:12:03.981Z,74.61
2024-01-03T22:14:30.795Z,72.24
2024-01-03T22:16:58.781Z,70.45
2024-01-03T22:19:25.642Z,70.87
2024-01-03T22:21:52.504Z,73.47
2024-01-03T22:24:20.517Z,73.51
2024-01-03T22:26:48.137Z,74.61
2024-01-03T22:29:14.810Z,74.59
2024-01-03T22:31:41.589Z,74.96
2024-01-03T22:34:10.132Z,75.24
2024-01-03T22:36:36.869Z,74.47
2024-01-03T22:39:05.022Z,73.96
2024-01-03T22:41:31.527Z,73.45
2024-01-03T22:43:58.133Z,73.95
2024-01-03T22:46:24.941Z,73.85
2024-01-03T22:48:51.985Z,73.59
2024-01-03T22:51:20.367Z,74.44
2024-01-03T22:53:47.003Z,74.51
2024-01-03T22:56:13.654Z,75.36
2024-01-03T22:58:40.130Z,75.87
2024-01-03T23:01:07.140Z,76.51
2024-01-03T23:03:33.758Z,75.96
2024-01-03T23:06:00.825Z,75.72
2024-01-03T23:08:28.954Z,74.60
2024-01-03T23:10:55.819Z,75.07
2024-01-03T23:13:22.822Z,75.08
2024-01-03T23:15:50.025Z,74.89
2024-01-03T23:18:22.177Z,74.73
2024-01-03T23:20:50.588Z,74.89
2024-01-03T23:23:18.597Z,75.44
2024-01-03T23:25:46.762Z,75.49
2024-01-03T23:28:14.355Z,74.99
2024-01-03T23:30:41.897Z,74.80
2024-01-03T23:33:08.608Z,74.63
2024-01-03T23:35:35.913Z,74.95
2024-01-03T23:38:02.944Z,75.64
2024-01-03T23:40:29.649Z,75.55
2024-01-03T23:42:57.736Z,75.98
2024-01-03T23:45:24.856Z,75.61
2024-01-03T23:47:51.508Z,75.48
2024-01-03T23:50:18.196Z,75.71
2024-01-03T23:52:45.707Z,76.23
2024-01-03T23:55:13.465Z,76.22
2024-01-03T23:57:40.128Z,75.58
